Time;durP1;ratioP1;P1;durP2;ratioP2;P2;SDS_P1;SDS_P2;PMS_P1;PMS_P2;Temp;Humidity;BMP_temperature;BMP_pressure;BME280_temperature;BME280_humidity;BME280_pressure;Samples;Min_cycle;Max_cycle;Signal;HPM_P1;HPM_P2
2023/03/20 00:00:22;;;;;;;16.70;8.40;;;;;;;;;;4978885;28;20090;-88
2023/03/20 00:02:48;;;;;;;26.33;8.63;;;;;;;;;;4957127;28;20594;-89
2023/03/20 00:05:18;;;;;;;18.13;8.88;;;;;;;;;;4980321;28;20427;-88
2023/03/20 00:07:45;;;;;;;21.25;10.20;;;;;;;;;;4947015;28;20077;-88
2023/03/20 00:10:11;;;;;;;16.30;8.65;;;;;;;;;;4953536;28;20039;-88
2023/03/20 00:12:37;;;;;;;21.13;8.65;;;;;;;;;;4949946;28;20047;-89
2023/03/20 00:15:06;;;;;;;21.58;8.85;;;;;;;;;;4960626;28;20035;-88
2023/03/20 00:17:32;;;;;;;21.30;8.88;;;;;;;;;;4948227;29;20043;-87
2023/03/20 00:19:58;;;;;;;22.88;9.60;;;;;;;;;;4966290;28;20079;-89
2023/03/20 00:22:24;;;;;;;26.83;9.52;;;;;;;;;;4968334;28;20511;-88
2023/03/20 00:24:50;;;;;;;16.95;8.70;;;;;;;;;;4963800;28;20142;-89
2023/03/20 00:27:16;;;;;;;17.35;8.98;;;8.20;99.90;;;;;;4981598;28;20109;-88
2023/03/20 00:29:43;;;;;;;19.85;8.82;;;;;;;;;;4947339;28;20388;-88
2023/03/20 00:32:11;;;;;;;21.35;8.82;;;;;;;;;;4962467;28;20042;-88
2023/03/20 00:34:38;;;;;;;20.00;9.13;;;;;;;;;;4963127;28;20106;-88
2023/03/20 00:37:04;;;;;;;17.25;8.98;;;;;;;;;;4965153;28;20047;-88
2023/03/20 00:39:30;;;;;;;16.90;8.10;;;;;;;;;;4968897;28;20058;-88
2023/03/20 00:42:07;;;;;;;13.82;6.75;;;;;;;;;;4946248;28;20047;-88
2023/03/20 00:44:51;;;;;;;16.27;6.80;;;;;;;;;;4949716;28;20045;-88
2023/03/20 00:47:22;;;;;;;15.80;5.93;;;;;;;;;;4965854;28;20489;-88
2023/03/20 00:49:49;;;;;;;14.63;7.22;;;;;;;;;;4952285;28;20062;-88
2023/03/20 00:52:16;;;;;;;15.70;6.60;;;;;;;;;;4965287;28;20047;-88
2023/03/20 00:54:42;;;;;;;16.45;6.53;;;;;;;;;;4962181;28;20043;-88
2023/03/20 00:57:11;;;;;;;16.80;6.93;;;;;;;;;;4972378;28;20035;-88
2023/03/20 00:59:39;;;;;;;12.32;6.22;;;;;;;;;;4962236;28;20134;-88
2023/03/20 01:02:05;;;;;;;13.27;5.82;;;;;;;;;;4972863;28;20182;-88
2023/03/20 01:04:39;;;;;;;14.35;6.30;;;;;;;;;;4957168;28;20513;-88
2023/03/20 01:07:06;;;;;;;12.55;6.22;;;;;;;;;;4949577;28;20050;-88
2023/03/20 01:09:32;;;;;;;22.75;6.63;;;;;;;;;;4938352;28;20086;-88
2023/03/20 01:11:59;;;;;;;22.73;6.63;;;;;;;;;;4955301;28;20043;-88
2023/03/20 01:14:25;;;;;;;12.38;6.30;;;;;;;;;;4971018;28;20426;-88
2023/03/20 01:16:51;;;;;;;16.95;7.40;;;;;;;;;;4958152;28;20486;-88
2023/03/20 01:19:17;;;;;;;13.52;6.50;;;;;;;;;;4950089;28;20047;-89
2023/03/20 01:21:43;;;;;;;16.88;7.32;;;;;;;;;;4972591;28;20456;-88
2023/03/20 01:24:09;;;;;;;15.38;7.00;;;;;;;;;;4964134;28;20050;-89
2023/03/20 01:26:42;;;;;;;14.30;6.45;;;;;;;;;;4963048;28;20125;-88
2023/03/20 01:29:26;;;;;;;18.52;7.05;;;;;;;;;;4963557;28;20043;-89
2023/03/20 01:31:52;;;;;;;15.38;7.22;;;;;;;;;;4946684;28;20046;-89
2023/03/20 01:34:18;;;;;;;21.27;7.00;;;;;;;;;;4976710;28;20051;-89
2023/03/20 01:36:52;;;;;;;13.93;7.03;;;;;;;;;;4975247;28;20050;-89
2023/03/20 01:39:20;;;;;;;16.05;7.30;;;8.10;99.90;;;;;;4974170;28;20038;-89
2023/03/20 01:41:47;;;;;;;14.57;7.40;;;;;;;;;;4951122;28;20126;-88
2023/03/20 01:44:18;;;;;;;14.35;8.10;;;;;;;;;;4970390;28;20035;-89
2023/03/20 01:46:45;;;;;;;20.65;9.20;;;;;;;;;;4959284;28;20357;-88
2023/03/20 01:49:20;;;;;;;16.92;9.10;;;;;;;;;;4951592;28;20634;-88
2023/03/20 01:51:47;;;;;;;16.25;8.85;;;;;;;;;;4957977;28;20509;-89
2023/03/20 01:54:19;;;;;;;20.30;9.95;;;;;;;;;;4954648;28;20039;-89
2023/03/20 01:56:54;;;;;;;18.80;10.15;;;;;;;;;;4980630;28;20405;-89
2023/03/20 01:59:45;;;;;;;22.02;10.80;;;8.20;99.90;;;;;;4938459;28;20485;-89
2023/03/20 02:02:22;;;;;;;19.50;9.55;;;8.20;99.90;;;;;;4947564;28;20512;-89
2023/03/20 02:04:51;;;;;;;19.70;9.88;;;;;;;;;;4960145;28;20046;-89
2023/03/20 02:07:18;;;;;;;21.45;9.60;;;;;;;;;;4949622;28;20074;-89
2023/03/20 02:09:46;;;;;;;21.88;11.77;;;;;;;;;;4953532;28;20162;-88
2023/03/20 02:12:12;;;;;;;19.45;9.90;;;;;;;;;;4972368;28;20050;-89
2023/03/20 02:14:38;;;;;;;20.00;11.27;;;;;;;;;;4946737;28;20129;-89
2023/03/20 02:17:06;;;;;;;21.88;10.55;;;;;;;;;;4950106;28;20035;-88
2023/03/20 02:19:41;;;;;;;22.23;10.15;;;;;;;;;;4954990;28;20536;-88
2023/03/20 02:22:16;;;;;;;23.95;10.30;;;;;;;;;;4972288;28;20078;-89
2023/03/20 02:24:54;;;;;;;20.52;9.60;;;;;;;;;;4960581;28;20391;-88
2023/03/20 02:27:26;;;;;;;20.23;10.23;;;;;;;;;;4960925;28;20042;-89
2023/03/20 02:29:55;;;;;;;18.98;9.90;;;;;;;;;;4955370;28;20416;-89
2023/03/20 02:32:24;;;;;;;20.50;9.57;;;;;;;;;;4970769;28;20050;-89
2023/03/20 02:34:59;;;;;;;22.52;10.52;;;;;;;;;;4959811;28;20091;-89
2023/03/20 02:37:25;;;;;;;;;;;;;;;;;;4968376;28;20432;-88
2023/03/20 02:40:18;;;;;;;23.40;10.75;;;;;;;;;;4952819;28;19961;-89
2023/03/20 02:43:22;;;;;;;26.50;11.65;;;;;;;;;;4946085;28;20062;-89
2023/03/20 02:46:07;;;;;;;25.98;10.32;;;;;;;;;;4899374;29;20573;-88
2023/03/20 02:48:33;;;;;;;20.95;11.00;;;;;;;;;;4909950;29;20047;-88
2023/03/20 02:51:06;;;;;;;22.05;9.93;;;;;;;;;;4941474;28;20506;-88
2023/03/20 02:53:51;;;;;;;19.98;9.77;;;;;;;;;;4950363;28;20085;-89
2023/03/20 02:56:30;;;;;;;19.98;10.23;;;;;;;;;;4968406;28;20043;-88
2023/03/20 02:58:56;;;;;;;21.02;9.73;;;;;;;;;;4950641;28;20043;-88
2023/03/20 03:01:43;;;;;;;28.35;10.20;;;;;;;;;;4966248;28;20045;-89
2023/03/20 03:04:11;;;;;;;19.08;9.13;;;;;;;;;;4961313;28;20121;-89
2023/03/20 03:06:41;;;;;;;19.38;9.57;;;8.20;99.90;;;;;;4966706;28;20063;-88
2023/03/20 03:09:17;;;;;;;15.98;8.80;;;;;;;;;;4949094;28;20042;-88
2023/03/20 03:11:45;;;;;;;15.52;9.93;;;;;;;;;;4944768;28;20169;-89
2023/03/20 03:14:17;;;;;;;13.38;8.07;;;;;;;;;;4958083;28;20071;-89
2023/03/20 03:16:44;;;;;;;15.98;8.48;;;8.30;99.90;;;;;;4976446;28;20038;-89
2023/03/20 03:19:13;;;;;;;15.00;8.63;;;;;;;;;;4946421;28;20042;-89
2023/03/20 03:21:40;;;;;;;14.05;8.60;;;;;;;;;;4951034;28;20050;-89
2023/03/20 03:24:06;;;;;;;14.60;8.27;;;;;;;;;;4950611;28;20384;-88
2023/03/20 03:26:38;;;;;;;14.60;7.30;;;;;;;;;;4949431;29;20131;-88
2023/03/20 03:29:12;;;;;;;12.90;7.43;;;8.10;99.90;;;;;;4963774;28;20706;-88
2023/03/20 03:31:38;;;;;;;14.65;7.68;;;;;;;;;;4966277;28;20042;-88
2023/03/20 03:34:05;;;;;;;13.45;7.38;;;;;;;;;;4967941;28;20109;-88
2023/03/20 03:36:58;;;;;;;12.75;6.25;;;8.40;99.90;;;;;;4983033;28;20047;-88
2023/03/20 03:39:42;;;;;;;13.88;6.97;;;;;;;;;;4957285;28;20454;-88
2023/03/20 03:42:13;;;;;;;10.23;6.78;;;;;;;;;;4974111;28;20109;-88
2023/03/20 03:45:08;;;;;;;10.38;6.80;;;;;;;;;;4947983;28;20047;-88
2023/03/20 03:47:40;;;;;;;11.57;6.55;;;;;;;;;;4943716;28;20089;-88
2023/03/20 03:50:13;;;;;;;15.30;7.15;;;8.40;99.90;;;;;;4964295;28;20109;-88
2023/03/20 03:52:40;;;;;;;11.27;6.32;;;;;;;;;;4946704;29;20043;-88
2023/03/20 03:55:09;;;;;;;13.93;7.30;;;;;;;;;;4951220;28;20043;-88
2023/03/20 03:57:35;;;;;;;13.35;7.22;;;;;;;;;;4971726;28;20503;-88
2023/03/20 04:00:05;;;;;;;12.80;6.68;;;;;;;;;;4962713;28;20069;-88
2023/03/20 04:02:31;;;;;;;12.20;7.47;;;;;;;;;;4949519;28;20047;-89
2023/03/20 04:04:58;;;;;;;16.40;7.18;;;;;;;;;;4951312;28;20042;-88
2023/03/20 04:07:27;;;;;;;19.10;8.32;;;;;;;;;;4975407;28;20047;-89
2023/03/20 04:09:53;;;;;;;20.85;7.93;;;;;;;;;;4977497;28;20546;-89
2023/03/20 04:12:37;;;;;;;16.20;7.38;;;;;;;;;;4976421;28;20046;-89
2023/03/20 04:15:04;;;;;;;14.35;6.95;;;;;;;;;;4950141;28;20043;-89
2023/03/20 04:17:30;;;;;;;15.73;7.18;;;;;;;;;;4962906;28;20042;-88
2023/03/20 04:19:56;;;;;;;13.95;8.40;;;;;;;;;;4954815;28;20043;-89
2023/03/20 04:22:22;;;;;;;16.73;7.97;;;;;;;;;;4963186;28;20094;-89
2023/03/20 04:24:48;;;;;;;14.05;7.80;;;;;;;;;;4951385;28;20569;-88
2023/03/20 04:27:15;;;;;;;13.07;6.60;;;;;;;;;;4950022;28;20089;-88
2023/03/20 04:29:41;;;;;;;14.98;7.10;;;;;;;;;;4963841;28;20047;-88
2023/03/20 04:32:07;;;;;;;12.80;7.30;;;;;;;;;;4966584;28;20145;-88
2023/03/20 04:34:33;;;;;;;17.20;7.53;;;;;;;;;;4960860;28;20161;-88
2023/03/20 04:37:04;;;;;;;12.73;7.05;;;;;;;;;;4964753;28;20051;-88
2023/03/20 04:39:30;;;;;;;11.80;7.30;;;;;;;;;;4957026;28;20362;-88
2023/03/20 04:41:56;;;;;;;13.75;7.35;;;;;;;;;;4962542;28;20054;-88
2023/03/20 04:44:22;;;;;;;16.48;7.90;;;;;;;;;;4964968;28;20042;-88
2023/03/20 04:46:48;;;;;;;16.73;8.60;;;;;;;;;;4959937;28;20039;-88
2023/03/20 04:49:14;;;;;;;16.00;8.63;;;;;;;;;;4968939;28;20043;-88
2023/03/20 04:51:40;;;;;;;14.82;8.18;;;;;;;;;;4961399;28;20050;-88
2023/03/20 04:54:06;;;;;;;16.15;8.73;;;;;;;;;;4960736;28;20493;-88
2023/03/20 04:56:32;;;;;;;18.23;8.30;;;;;;;;;;4950976;28;20416;-88
2023/03/20 04:58:58;;;;;;;16.27;9.32;;;;;;;;;;4972056;28;20042;-89
2023/03/20 05:01:24;;;;;;;15.70;9.02;;;;;;;;;;4964340;28;20109;-88
2023/03/20 05:03:50;;;;;;;16.58;9.32;;;;;;;;;;4951003;28;20042;-88
2023/03/20 05:06:16;;;;;;;19.35;10.13;;;;;;;;;;4973800;28;20046;-88
2023/03/20 05:08:42;;;;;;;19.73;9.90;;;;;;;;;;4962302;28;20101;-88
2023/03/20 05:11:09;;;;;;;14.02;7.78;;;;;;;;;;4974317;28;20041;-88
2023/03/20 05:13:35;;;;;;;18.98;9.85;;;;;;;;;;4947224;28;20174;-88
2023/03/20 05:16:01;;;;;;;15.98;9.30;;;;;;;;;;4965801;28;20043;-88
2023/03/20 05:18:27;;;;;;;16.85;8.93;;;;;;;;;;4949800;28;20039;-88
2023/03/20 05:20:53;;;;;;;19.45;9.90;;;;;;;;;;4965878;28;20047;-88
2023/03/20 05:23:19;;;;;;;19.20;9.48;;;;;;;;;;4973745;28;20556;-88
2023/03/20 05:25:45;;;;;;;18.77;9.70;;;;;;;;;;4956709;28;20046;-88
2023/03/20 05:28:11;;;;;;;17.63;9.65;;;;;;;;;;4960784;28;20985;-89
2023/03/20 05:30:37;;;;;;;18.77;9.93;;;;;;;;;;4981615;28;20062;-88
2023/03/20 05:33:03;;;;;;;21.02;10.88;;;;;;;;;;4981121;28;20043;-89
2023/03/20 05:35:29;;;;;;;18.90;10.02;;;;;;;;;;4952920;28;20501;-89
2023/03/20 05:37:55;;;;;;;23.77;11.10;;;;;;;;;;4968763;28;20050;-88
2023/03/20 05:40:24;;;;;;;15.40;9.63;;;;;;;;;;4948267;28;20093;-88
2023/03/20 05:42:51;;;;;;;18.20;10.00;;;;;;;;;;4940700;28;20038;-88
2023/03/20 05:45:17;;;;;;;13.57;9.43;;;;;;;;;;4956313;28;20104;-88
2023/03/20 05:47:43;;;;;;;16.30;9.63;;;;;;;;;;4964949;28;20478;-88
2023/03/20 05:50:10;;;;;;;18.30;10.35;;;;;;;;;;4958706;28;20050;-88
2023/03/20 05:52:36;;;;;;;20.90;9.57;;;;;;;;;;4950497;28;20079;-88
2023/03/20 05:55:02;;;;;;;16.90;9.05;;;;;;;;;;4962467;28;20089;-88
2023/03/20 05:57:28;;;;;;;14.80;9.77;;;;;;;;;;4968794;28;20404;-88
2023/03/20 05:59:54;;;;;;;18.27;10.13;;;;;;;;;;4961186;28;20097;-88
2023/03/20 06:02:20;;;;;;;16.08;10.40;;;;;;;;;;4982501;28;20058;-88
2023/03/20 06:04:46;;;;;;;18.50;10.18;;;;;;;;;;4984381;28;20046;-88
2023/03/20 06:07:12;;;;;;;16.77;9.30;;;;;;;;;;4958277;28;20093;-88
2023/03/20 06:09:38;;;;;;;21.42;9.63;;;;;;;;;;4966348;28;20070;-88
2023/03/20 06:12:04;;;;;;;17.40;9.48;;;;;;;;;;4952933;28;20042;-89
2023/03/20 06:14:30;;;;;;;20.38;10.95;;;;;;;;;;4943910;28;20053;-88
2023/03/20 06:16:56;;;;;;;18.30;8.82;;;;;;;;;;4975364;28;20043;-88
2023/03/20 06:19:23;;;;;;;17.25;10.43;;;;;;;;;;4939985;28;20042;-88
2023/03/20 06:21:49;;;;;;;17.58;10.13;;;;;;;;;;4957796;28;20046;-88
2023/03/20 06:24:16;;;;;;;15.68;8.65;;;;;;;;;;4975228;28;20408;-88
2023/03/20 06:26:42;;;;;;;18.92;9.35;;;;;;;;;;4960844;28;20093;-88
2023/03/20 06:29:08;;;;;;;20.00;9.38;;;;;;;;;;4957450;28;20042;-88
2023/03/20 06:31:34;;;;;;;19.17;10.63;;;;;;;;;;4971033;28;20038;-88
2023/03/20 06:34:01;;;;;;;17.98;9.60;;;;;;;;;;4979768;28;20526;-88
2023/03/20 06:36:27;;;;;;;18.98;10.07;;;;;;;;;;4972774;28;20129;-88
2023/03/20 06:38:55;;;;;;;16.98;10.07;;;;;;;;;;4986590;28;20129;-88
2023/03/20 06:41:21;;;;;;;19.00;10.35;;;;;;;;;;4982293;28;20230;-88
2023/03/20 06:43:47;;;;;;;23.88;9.70;;;;;;;;;;4962702;28;20058;-88
2023/03/20 06:46:13;;;;;;;20.30;9.50;;;;;;;;;;4946042;28;20070;-88
2023/03/20 06:48:39;;;;;;;18.05;10.15;;;;;;;;;;4942675;28;20074;-88
2023/03/20 06:51:06;;;;;;;17.08;10.85;;;;;;;;;;4954034;28;20052;-88
2023/03/20 06:53:32;;;;;;;21.42;10.90;;;;;;;;;;4985268;28;20054;-88
2023/03/20 06:55:58;;;;;;;22.23;10.48;;;;;;;;;;4982475;28;20125;-88
2023/03/20 06:58:25;;;;;;;29.27;12.60;;;;;;;;;;4965457;28;20081;-88
2023/03/20 07:00:53;;;;;;;26.13;12.05;;;;;;;;;;4961128;28;20038;-88
2023/03/20 07:03:19;;;;;;;25.30;10.88;;;;;;;;;;4950026;28;20046;-88
2023/03/20 07:05:45;;;;;;;24.33;13.38;;;;;;;;;;4978317;28;20100;-88
2023/03/20 07:08:11;;;;;;;27.65;12.25;;;;;;;;;;4961560;28;20043;-88
2023/03/20 07:10:37;;;;;;;25.50;13.30;;;;;;;;;;4955546;28;20061;-88
2023/03/20 07:13:03;;;;;;;21.67;12.82;;;;;;;;;;4963577;28;20453;-87
2023/03/20 07:15:29;;;;;;;26.83;11.80;;;;;;;;;;4963289;28;20054;-87
2023/03/20 07:17:56;;;;;;;22.73;11.15;;;;;;;;;;4965595;28;20034;-88
2023/03/20 07:20:22;;;;;;;24.13;11.38;;;;;;;;;;4959419;28;20042;-88
2023/03/20 07:22:48;;;;;;;23.92;11.70;;;;;;;;;;4968408;28;20087;-88
2023/03/20 07:25:14;;;;;;;26.85;12.27;;;;;;;;;;4977151;28;20049;-88
2023/03/20 07:27:41;;;;;;;21.95;12.40;;;;;;;;;;4949683;28;20124;-88
2023/03/20 07:30:08;;;;;;;18.90;11.52;;;;;;;;;;4953646;28;20532;-88
2023/03/20 07:32:34;;;;;;;19.25;11.15;;;;;;;;;;4950111;28;20126;-88
2023/03/20 07:35:00;;;;;;;26.25;12.15;;;;;;;;;;4963918;28;20093;-88
2023/03/20 07:37:26;;;;;;;25.08;12.90;;;;;;;;;;4961876;28;20050;-89
2023/03/20 07:39:52;;;;;;;22.75;12.48;;;;;;;;;;4952854;28;20042;-88
2023/03/20 07:42:18;;;;;;;27.65;12.50;;;;;;;;;;4962381;28;20140;-88
2023/03/20 07:44:44;;;;;;;25.75;12.20;;;;;;;;;;4958759;28;20494;-88
2023/03/20 07:47:10;;;;;;;25.58;12.45;;;;;;;;;;4940403;28;20053;-88
2023/03/20 07:49:36;;;;;;;27.00;12.00;;;;;;;;;;4941887;28;20434;-88
2023/03/20 07:52:02;;;;;;;22.05;11.35;;;;;;;;;;4953131;28;20093;-88
2023/03/20 07:54:28;;;;;;;26.92;13.13;;;;;;;;;;4983320;28;20471;-88
2023/03/20 07:56:54;;;;;;;24.65;12.27;;;;;;;;;;4943875;28;20104;-88
2023/03/20 07:59:20;;;;;;;27.33;12.48;;;;;;;;;;4954098;28;20444;-88
2023/03/20 08:01:46;;;;;;;23.70;11.77;;;;;;;;;;4964182;28;20492;-88
2023/03/20 08:04:12;;;;;;;22.80;11.40;;;;;;;;;;4963311;28;20045;-88
2023/03/20 08:06:38;;;;;;;26.02;12.73;;;;;;;;;;4963391;28;20077;-88
2023/03/20 08:09:05;;;;;;;24.67;12.18;;;8.80;99.90;;;;;;4962344;28;20137;-88
2023/03/20 08:11:32;;;;;;;24.80;11.63;;;;;;;;;;4956765;28;20428;-88
2023/03/20 08:13:58;;;;;;;24.83;12.02;;;;;;;;;;4961082;28;20514;-88
2023/03/20 08:16:24;;;;;;;20.08;11.80;;;;;;;;;;4953254;28;20125;-88
2023/03/20 08:18:52;;;;;;;21.65;11.52;;;;;;;;;;4961580;28;20038;-88
2023/03/20 08:21:18;;;;;;;20.38;11.52;;;;;;;;;;4959179;28;20054;-89
2023/03/20 08:23:44;;;;;;;24.88;11.48;;;;;;;;;;4961087;28;20038;-88
2023/03/20 08:26:11;;;;;;;28.35;10.98;;;;;;;;;;4955113;28;20050;-89
2023/03/20 08:28:37;;;;;;;21.88;11.18;;;;;;;;;;4964557;28;20071;-88
2023/03/20 08:31:07;;;;;;;21.83;10.98;;;;;;;;;;4942281;28;20049;-88
2023/03/20 08:33:33;;;;;;;22.60;11.45;;;;;;;;;;4959550;28;20576;-88
2023/03/20 08:35:59;;;;;;;25.30;11.77;;;;;;;;;;4949358;28;20048;-88
2023/03/20 08:38:25;;;;;;;21.95;10.77;;;;;;;;;;4955624;28;20043;-88
2023/03/20 08:40:53;;;;;;;21.10;10.65;;;;;;;;;;4955560;28;20074;-88
2023/03/20 08:43:19;;;;;;;19.60;10.27;;;;;;;;;;4959648;28;20054;-88
2023/03/20 08:45:45;;;;;;;21.30;10.02;;;;;;;;;;4980118;28;20101;-87
2023/03/20 08:48:11;;;;;;;22.70;10.75;;;;;;;;;;4981601;28;20050;-88
2023/03/20 08:50:38;;;;;;;18.92;11.35;;;;;;;;;;4977287;28;20078;-89
2023/03/20 08:53:04;;;;;;;19.58;10.50;;;;;;;;;;4958597;28;20053;-89
2023/03/20 08:55:30;;;;;;;18.27;10.48;;;;;;;;;;4981114;28;20698;-88
2023/03/20 08:57:56;;;;;;;16.35;9.80;;;;;;;;;;4957372;28;20039;-88
2023/03/20 09:00:23;;;;;;;21.58;9.55;;;;;;;;;;4973616;28;20038;-89
2023/03/20 09:02:49;;;;;;;20.67;9.45;;;;;;;;;;4957695;28;20043;-88
2023/03/20 09:05:15;;;;;;;17.05;9.13;;;;;;;;;;4952388;28;20042;-88
2023/03/20 09:07:41;;;;;;;17.33;9.48;;;;;;;;;;4955017;28;20051;-89
2023/03/20 09:10:08;;;;;;;15.70;8.80;;;;;;;;;;4955779;28;20141;-88
2023/03/20 09:12:34;;;;;;;17.42;9.80;;;;;;;;;;4951441;28;20386;-88
2023/03/20 09:15:01;;;;;;;16.00;9.38;;;;;;;;;;4960222;28;20054;-89
2023/03/20 09:17:27;;;;;;;15.35;9.35;;;;;;;;;;4941362;28;20061;-88
2023/03/20 09:19:53;;;;;;;16.77;9.43;;;;;;;;;;4966413;28;20054;-88
2023/03/20 09:22:19;;;;;;;19.00;9.65;;;;;;;;;;4945141;28;20042;-89
2023/03/20 09:24:46;;;;;;;15.82;9.57;;;;;;;;;;4959665;28;20606;-88
2023/03/20 09:27:12;;;;;;;15.70;9.40;;;;;;;;;;4959899;28;20117;-88
2023/03/20 09:29:39;;;;;;;16.58;9.60;;;;;;;;;;4958055;28;20046;-88
2023/03/20 09:32:05;;;;;;;15.70;9.18;;;;;;;;;;4958463;28;20628;-88
2023/03/20 09:34:31;;;;;;;22.25;10.15;;;;;;;;;;4962893;28;20054;-88
2023/03/20 09:36:57;;;;;;;18.92;10.98;;;;;;;;;;4961137;28;20460;-88
2023/03/20 09:39:23;;;;;;;18.73;10.90;;;;;;;;;;4955348;28;20042;-88
2023/03/20 09:41:50;;;;;;;18.27;10.65;;;;;;;;;;4957359;28;20500;-88
2023/03/20 09:44:35;;;;;;;16.90;10.10;;;;;;;;;;4949377;28;20084;-88
2023/03/20 09:47:18;;;;;;;16.17;9.95;;;;;;;;;;4948498;28;20509;-89
2023/03/20 09:49:44;;;;;;;17.00;9.80;;;;;;;;;;4964222;28;20070;-89
2023/03/20 09:52:17;;;;;;;17.05;10.73;;;;;;;;;;4965961;28;20460;-88
2023/03/20 09:54:46;;;;;;;17.67;9.93;;;;;;;;;;4956894;28;20061;-89
2023/03/20 09:57:17;;;;;;;19.02;10.23;;;;;;;;;;4963122;28;20046;-89
2023/03/20 09:59:44;;;;;;;16.63;9.35;;;;;;;;;;4963141;28;20244;-88
2023/03/20 10:02:23;;;;;;;15.13;8.85;;;;;;;;;;4962317;28;20128;-88
2023/03/20 10:04:51;;;;;;;17.65;9.60;;;;;;;;;;4958465;28;20428;-89
2023/03/20 10:07:17;;;;;;;21.50;10.15;;;;;;;;;;4971172;28;20046;-89
2023/03/20 10:09:44;;;;;;;22.67;10.70;;;;;;;;;;4963506;28;20111;-89
2023/03/20 10:12:24;;;;;;;18.33;9.10;;;;;;;;;;4961860;28;20051;-89
2023/03/20 10:14:56;;;;;;;17.15;9.65;;;;;;;;;;4960751;28;20050;-89
2023/03/20 10:17:32;;;;;;;22.40;9.45;;;;;;;;;;4960786;28;20403;-89
2023/03/20 10:20:01;;;;;;;22.77;9.77;;;;;;;;;;4961491;28;20133;-88
2023/03/20 10:22:34;;;;;;;12.90;8.80;;;;;;;;;;4965469;28;20137;-89
2023/03/20 10:25:10;;;;;;;18.73;7.25;;;;;;;;;;4981236;28;20049;-88
2023/03/20 10:27:42;;;;;;;19.38;7.00;;;10.00;99.90;;;;;;4963964;28;20046;-89
2023/03/20 10:30:21;;;;;;;14.60;6.65;;;;;;;;;;4979174;28;20039;-89
2023/03/20 10:33:06;;;;;;;13.57;6.35;;;;;;;;;;4954138;28;20067;-88
2023/03/20 10:35:39;;;;;;;10.20;6.00;;;;;;;;;;4966760;28;20055;-88
2023/03/20 10:38:14;;;;;;;10.93;5.40;;;;;;;;;;4967867;28;20042;-88
2023/03/20 10:40:40;;;;;;;;;;;;;;;;;;4966819;28;20392;-88
2023/03/20 10:43:24;;;;;;;13.80;5.10;;;;;;;;;;4961008;28;19921;-88
2023/03/20 10:45:51;;;;;;;10.70;6.25;;;;;;;;;;4967332;28;20042;-88
2023/03/20 10:48:30;;;;;;;18.25;6.68;;;10.30;99.90;;;;;;4979351;28;20081;-88
2023/03/20 10:50:58;;;;;;;11.82;6.53;;;;;;;;;;4965357;28;20060;-88
2023/03/20 10:53:30;;;;;;;11.77;5.32;;;10.40;99.90;;;;;;4962276;28;20625;-90
2023/03/20 10:55:58;;;;;;;14.68;6.32;;;;;;;;;;4963582;28;20577;-88
2023/03/20 10:58:27;;;;;;;9.23;4.55;;;;;;;;;;4963825;28;20097;-85
2023/03/20 11:00:55;;;;;;;12.50;5.18;;;;;;;;;;4960777;28;20085;-86
2023/03/20 11:03:25;;;;;;;12.45;6.13;;;;;;;;;;4961690;28;20049;-87
2023/03/20 11:06:00;;;;;;;15.40;6.78;;;;;;;;;;4955774;28;20074;-87
2023/03/20 11:08:35;;;;;;;13.20;5.25;;;10.00;99.90;;;;;;4944577;28;20055;-86
2023/03/20 11:11:03;;;;;;;14.05;5.70;;;;;;;;;;4956986;28;20468;-86
2023/03/20 11:13:31;;;;;;;14.85;5.45;;;;;;;;;;4962526;28;20061;-85
2023/03/20 11:16:14;;;;;;;11.10;4.30;;;10.10;99.90;;;;;;4965432;28;20123;-84
2023/03/20 11:18:41;;;;;;;11.05;5.65;;;;;;;;;;4955590;28;20049;-85
2023/03/20 11:21:13;;;;;;;9.50;4.60;;;;;;;;;;4957277;28;20484;-84
2023/03/20 11:23:39;;;;;;;10.65;5.82;;;;;;;;;;4957379;28;20462;-85
2023/03/20 11:26:06;;;;;;;11.63;4.85;;;;;;;;;;4961126;28;20050;-84
2023/03/20 11:28:39;;;;;;;8.25;4.68;;;;;;;;;;4955760;28;20074;-87
2023/03/20 11:31:07;;;;;;;11.45;4.50;;;;;;;;;;4957078;28;20043;-84
2023/03/20 11:33:43;;;;;;;9.65;4.38;;;;;;;;;;4955200;28;20097;-84
2023/03/20 11:36:20;;;;;;;9.05;4.38;;;;;;;;;;4955785;28;20117;-84
2023/03/20 11:38:46;;;;;;;11.63;4.32;;;;;;;;;;4963509;28;20058;-84
2023/03/20 11:41:22;;;;;;;10.00;4.03;;;;;;;;;;4956710;28;20042;-84
2023/03/20 11:43:48;;;;;;;12.10;4.70;;;;;;;;;;4965555;28;20057;-84
2023/03/20 11:46:14;;;;;;;10.90;5.10;;;;;;;;;;4961546;28;20069;-84
2023/03/20 11:48:41;;;;;;;13.80;4.10;;;;;;;;;;4964642;28;20053;-85
2023/03/20 11:51:09;;;;;;;7.68;3.78;;;;;;;;;;4958549;28;20050;-84
2023/03/20 11:53:36;;;;;;;12.65;4.40;;;;;;;;;;4958799;28;20054;-85
2023/03/20 11:56:02;;;;;;;7.78;4.47;;;;;;;;;;4957498;28;20047;-84
2023/03/20 11:58:29;;;;;;;9.15;3.38;;;;;;;;;;4957479;28;20042;-84
2023/03/20 12:00:55;;;;;;;8.50;3.95;;;10.10;99.90;;;;;;4954877;28;20464;-84
2023/03/20 12:03:40;;;;;;;10.75;4.38;;;;;;;;;;4962051;28;20046;-84
2023/03/20 12:06:07;;;;;;;15.38;5.30;;;;;;;;;;4964119;28;20046;-84
2023/03/20 12:08:34;;;;;;;15.80;5.72;;;;;;;;;;4969490;28;20123;-85
2023/03/20 12:11:06;;;;;;;10.93;5.63;;;;;;;;;;4969848;28;20049;-85
2023/03/20 12:13:33;;;;;;;12.18;5.50;;;;;;;;;;4960554;28;20369;-84
2023/03/20 12:16:10;;;;;;;14.27;6.00;;;;;;;;;;4968430;28;20050;-85
2023/03/20 12:18:47;;;;;;;13.27;6.32;;;;;;;;;;4969374;28;20038;-85
2023/03/20 12:21:17;;;;;;;12.48;6.47;;;;;;;;;;4965886;28;20121;-86
2023/03/20 12:23:57;;;;;;;14.70;5.90;;;;;;;;;;4959340;28;20152;-86
2023/03/20 12:26:56;;;;;;;13.75;6.32;;;;;;;;;;4958177;28;20050;-86
2023/03/20 12:29:28;;;;;;;12.38;6.53;;;;;;;;;;4922367;28;20058;-86
2023/03/20 12:32:10;;;;;;;11.82;7.00;;;;;;;;;;4958675;28;20047;-86
2023/03/20 12:34:39;;;;;;;13.68;6.72;;;;;;;;;;4962596;28;20591;-86
2023/03/20 12:37:08;;;;;;;12.25;7.13;;;;;;;;;;4970889;28;20054;-85
2023/03/20 12:39:37;;;;;;;16.35;7.13;;;;;;;;;;4957681;28;20046;-86
2023/03/20 12:42:33;;;;;;;17.10;7.35;;;9.50;99.90;;;;;;4942014;28;20049;-85
2023/03/20 12:45:00;;;;;;;;;;;;;;;;;;4965785;28;20065;-85
2023/03/20 12:47:31;;;;;;;14.43;6.60;;;;;;;;;;4961085;28;19932;-85
2023/03/20 12:50:16;;;;;;;13.02;6.95;;;;;;;;;;4962978;28;20508;-86
2023/03/20 12:52:58;;;;;;;15.70;7.30;;;;;;;;;;4966653;28;20428;-86
2023/03/20 12:55:40;;;;;;;14.48;7.43;;;;;;;;;;4962903;28;20133;-85
2023/03/20 12:58:06;;;;;;;16.30;7.70;;;;;;;;;;4962052;28;20508;-86
2023/03/20 13:00:35;;;;;;;11.88;7.75;;;;;;;;;;4945828;28;20045;-86
2023/03/20 13:03:07;;;;;;;16.45;7.25;;;;;;;;;;4954506;28;20046;-85
2023/03/20 13:05:39;;;;;;;17.08;8.35;;;;;;;;;;4960740;28;20496;-86
2023/03/20 13:08:21;;;;;;;14.30;7.80;;;;;;;;;;4964809;28;20042;-86
2023/03/20 13:11:20;;;;;;;13.40;7.97;;;;;;;;;;4957371;28;20449;-86
2023/03/20 13:13:46;;;;;;;11.60;8.13;;;;;;;;;;4922206;28;20508;-86
2023/03/20 13:16:21;;;;;;;14.25;7.63;;;;;;;;;;4940606;28;20119;-85
2023/03/20 13:19:00;;;;;;;12.70;8.40;;;;;;;;;;4958535;28;20058;-86
2023/03/20 13:21:33;;;;;;;15.73;7.40;;;;;;;;;;4965498;28;20443;-85
2023/03/20 13:24:27;;;;;;;13.70;8.35;;;9.20;99.90;;;;;;4962993;28;20493;-85
2023/03/20 13:27:02;;;;;;;12.38;7.60;;;;;;;;;;4966187;28;20046;-85
2023/03/20 13:29:37;;;;;;;13.32;7.80;;;;;;;;;;4942300;28;20441;-85
2023/03/20 13:32:10;;;;;;;15.75;8.60;;;;;;;;;;4947009;28;20105;-85
2023/03/20 13:34:55;;;;;;;17.60;8.38;;;;;;;;;;4962868;28;20479;-85
2023/03/20 13:37:41;;;;;;;17.13;8.90;;;;;;;;;;4963238;28;20551;-86
2023/03/20 13:40:14;;;;;;;13.43;8.77;;;;;;;;;;4955418;28;20488;-85
2023/03/20 13:42:59;;;;;;;17.40;9.02;;;;;;;;;;4960315;28;20097;-86
2023/03/20 13:45:28;;;;;;;14.30;10.52;;;;;;;;;;4947322;28;20080;-86
2023/03/20 13:47:55;;;;;;;18.40;10.02;;;;;;;;;;4965578;28;20515;-86
2023/03/20 13:50:34;;;;;;;17.48;11.25;;;;;;;;;;4976079;28;20042;-86
2023/03/20 13:53:11;;;;;;;19.80;10.80;;;;;;;;;;4963015;28;20049;-86
2023/03/20 13:55:45;;;;;;;16.42;11.15;;;;;;;;;;4968841;28;20046;-85
2023/03/20 13:58:20;;;;;;;17.87;10.83;;;;;;;;;;4961721;28;20061;-86
2023/03/20 14:00:54;;;;;;;;;;;8.90;99.90;;;;;;4965609;28;20038;-86
2023/03/20 14:03:28;;;;;;;19.80;13.32;;;;;;;;;;4970873;28;19944;-86
2023/03/20 14:05:54;;;;;;;26.57;13.50;;;;;;;;;;4959912;28;20416;-85
2023/03/20 14:08:31;;;;;;;26.17;14.57;;;;;;;;;;4957832;28;20536;-86
2023/03/20 14:11:15;;;;;;;22.30;13.85;;;;;;;;;;4961928;28;20042;-86
2023/03/20 14:13:43;;;;;;;23.85;14.07;;;;;;;;;;4966734;28;20058;-88
2023/03/20 14:16:13;;;;;;;19.63;13.48;;;8.90;99.90;;;;;;4962478;28;20647;-87
2023/03/20 14:18:40;;;;;;;22.08;15.52;;;;;;;;;;4948129;28;20441;-86
2023/03/20 14:21:14;;;;;;;29.90;17.13;;;;;;;;;;4974862;28;20049;-88
2023/03/20 14:23:45;;;;;;;29.05;17.75;;;;;;;;;;4952770;28;20053;-87
2023/03/20 14:26:19;;;;;;;30.10;18.17;;;;;;;;;;4960831;28;20074;-87
2023/03/20 14:28:53;;;;;;;23.42;16.48;;;;;;;;;;4950466;28;20048;-87
2023/03/20 14:31:25;;;;;;;32.33;18.67;;;;;;;;;;4960904;28;20038;-87
2023/03/20 14:34:15;;;;;;;29.80;18.30;;;;;;;;;;4959819;28;20134;-87
2023/03/20 14:36:59;;;;;;;29.85;18.35;;;8.80;99.90;;;;;;4958147;28;20078;-87